Cleveland, Ohio
Traffic Map
Current Weather Conditions
Cleveland, Ohio
Clear
Clear
58°
Feels Like: 58°
Wind Chill: 58° Ceiling: Unl
Heat Index: 58° Visibility: 10mi
Dew Point: 48° Wind: 0mph
Humidity: 70% Direction: ° ()
Pressure: 30.22in Gusts: 0mph
Raw Report DataKBKL 150153Z AUTO 00000KT 10SM CLR 14/09 A3022 RMK AO2 SLP234 T01440089 TSNO
Traffic Incident Summary
Active as of:
Severity:
Category:
InformationThere was an issue retrieving the traffic information for this location. Please try a different location or try again shortly.
Advertisements
Track Severe Weather on mobile